Time;durP1;ratioP1;P1;durP2;ratioP2;P2;SDS_P1;SDS_P2;PMS_P1;PMS_P2;Temp;Humidity;BMP_temperature;BMP_pressure;BME280_temperature;BME280_humidity;BME280_pressure;Samples;Min_cycle;Max_cycle;Signal;HPM_P1;HPM_P2
2022/09/16 02:48:35;;;;;;;5.22;1.75;;;15.40;99.90;;;;;;5020665;23;88590;-71
2022/09/16 02:51:20;;;;;;;3.30;1.90;;;15.40;99.90;;;;;;4916671;28;87008;-71
2022/09/16 02:53:53;;;;;;;5.13;1.85;;;15.40;99.90;;;;;;4914435;28;86256;-70
2022/09/16 02:56:40;;;;;;;4.13;1.70;;;15.30;99.90;;;;;;4919910;28;86738;-74
2022/09/16 02:59:09;;;;;;;4.35;2.20;;;15.20;99.90;;;;;;4919792;28;87716;-72
2022/09/16 03:01:41;;;;;;;4.38;2.47;;;15.00;99.90;;;;;;4920636;28;87201;-73
2022/09/16 03:04:16;;;;;;;4.10;2.25;;;15.00;99.90;;;;;;4920259;28;86315;-71
2022/09/16 03:06:41;;;;;;;4.38;2.10;;;14.90;99.90;;;;;;4920503;28;86747;-74
2022/09/16 03:09:10;;;;;;;3.97;2.53;;;14.90;99.90;;;;;;4918847;28;86917;-71
2022/09/16 03:11:44;;;;;;;4.53;2.17;;;14.80;99.90;;;;;;4918649;28;87083;-70
2022/09/16 03:14:31;;;;;;;7.03;2.03;;;14.90;99.90;;;;;;4900391;28;86234;-71
2022/09/16 03:17:24;;;;;;;6.40;1.80;;;15.10;99.90;;;;;;4915015;28;85753;-69
2022/09/16 03:20:23;;;;;;;3.92;1.88;;;15.10;99.90;;;;;;4919567;28;87320;-72
2022/09/16 03:23:05;;;;;;;3.95;1.95;;;15.10;99.90;;;;;;4908727;28;86930;-70
2022/09/16 03:26:01;;;;;;;3.90;2.00;;;15.00;99.90;;;;;;4900994;28;87156;-71
2022/09/16 03:28:32;;;;;;;3.38;2.20;;;15.00;99.90;;;;;;4902312;28;86201;-70
2022/09/16 03:31:09;;;;;;;5.70;1.80;;;15.10;99.90;;;;;;4911239;28;86697;-70
2022/09/16 03:33:45;;;;;;;7.90;2.45;;;15.20;99.90;;;;;;4914918;28;88261;-72
2022/09/16 03:36:15;;;;;;;4.53;2.22;;;15.20;99.90;;;;;;4911328;28;87161;-72
2022/09/16 03:38:42;;;;;;;4.78;2.17;;;15.00;99.90;;;;;;4909985;28;86300;-71
2022/09/16 03:41:09;;;;;;;5.60;2.28;;;14.90;99.90;;;;;;4910474;28;87530;-71
2022/09/16 03:43:34;;;;;;;5.13;2.47;;;15.00;99.90;;;;;;4907068;28;86987;-71
2022/09/16 03:46:00;;;;;;;6.55;2.42;;;15.10;99.90;;;;;;4904416;28;87386;-71
2022/09/16 03:48:26;;;;;;;5.38;3.28;;;15.00;99.90;;;;;;4898493;28;86578;-71
2022/09/16 03:50:51;;;;;;;6.88;2.47;;;14.90;99.90;;;;;;4899428;28;88348;-71
2022/09/16 03:53:17;;;;;;;4.43;2.20;;;14.90;99.90;;;;;;4899468;28;87154;-71
2022/09/16 03:55:43;;;;;;;3.67;1.70;;;14.80;99.90;;;;;;4899218;28;86271;-71
2022/09/16 03:58:08;;;;;;;5.72;2.08;;;14.80;99.90;;;;;;4897324;28;86872;-72
2022/09/16 04:00:34;;;;;;;5.53;2.70;;;14.80;99.90;;;;;;4899158;28;87699;-73
2022/09/16 04:03:00;;;;;;;5.13;2.00;;;14.90;99.90;;;;;;4889820;28;86447;-70
2022/09/16 04:05:26;;;;;;;4.68;1.90;;;15.00;99.90;;;;;;4898939;28;86304;-74
2022/09/16 04:07:52;;;;;;;4.25;2.13;;;15.00;99.90;;;;;;4899274;28;85939;-71
2022/09/16 04:10:18;;;;;;;9.48;2.40;;;14.90;99.90;;;;;;4904263;28;86756;-72
2022/09/16 04:12:44;;;;;;;3.75;1.58;;;14.90;99.90;;;;;;4915180;28;87121;-72
2022/09/16 04:15:10;;;;;;;5.07;2.13;;;14.80;99.90;;;;;;4916815;28;87759;-72
2022/09/16 04:17:36;;;;;;;4.25;2.60;;;14.90;99.90;;;;;;4918239;28;86261;-74
2022/09/16 04:20:03;;;;;;;6.45;1.90;;;14.70;99.90;;;;;;4891236;28;87214;-69
2022/09/16 04:22:30;;;;;;;6.53;2.70;;;14.60;99.90;;;;;;4898151;28;87263;-71
2022/09/16 04:24:56;;;;;;;5.57;2.65;;;14.60;99.90;;;;;;4912600;28;86781;-75
2022/09/16 04:27:23;;;;;;;4.45;2.45;;;14.50;99.90;;;;;;4917672;28;87428;-70
2022/09/16 04:29:48;;;;;;;5.18;2.17;;;14.40;99.90;;;;;;4913758;28;87734;-72
2022/09/16 04:32:14;;;;;;;5.32;3.08;;;14.50;99.90;;;;;;4911415;28;86911;-68
2022/09/16 04:34:40;;;;;;;7.63;3.13;;;14.50;99.90;;;;;;4901982;28;86365;-68
2022/09/16 04:37:06;;;;;;;5.38;2.97;;;14.50;99.90;;;;;;4901358;28;86342;-71
2022/09/16 04:39:32;;;;;;;6.68;2.90;;;14.50;99.90;;;;;;4895323;28;88348;-74
2022/09/16 04:41:58;;;;;;;6.35;2.65;;;14.30;99.90;;;;;;4909121;28;87606;-71
2022/09/16 04:44:25;;;;;;;5.47;2.97;;;14.40;99.90;;;;;;4894449;28;88809;-69
2022/09/16 04:46:51;;;;;;;9.13;3.47;;;14.40;99.90;;;;;;4897598;28;87623;-70
2022/09/16 04:49:17;;;;;;;5.30;3.00;;;14.40;99.90;;;;;;4910443;28;88208;-67
2022/09/16 04:51:43;;;;;;;4.75;3.13;;;14.40;99.90;;;;;;4916016;28;86352;-66
2022/09/16 04:54:10;;;;;;;6.80;2.92;;;14.40;99.90;;;;;;4916620;28;86708;-68
2022/09/16 04:56:36;;;;;;;3.80;2.10;;;14.50;99.90;;;;;;4916921;28;86028;-70
2022/09/16 04:59:03;;;;;;;4.82;2.50;;;14.60;99.90;;;;;;4915317;28;87247;-71
2022/09/16 05:01:32;;;;;;;5.95;2.53;;;14.50;99.90;;;;;;4908236;28;87347;-71
2022/09/16 05:04:00;;;;;;;4.43;2.70;;;14.60;99.90;;;;;;4919113;28;87990;-70
2022/09/16 05:06:28;;;;;;;6.25;3.10;;;14.60;99.90;;;;;;4912769;28;87105;-71
2022/09/16 05:08:55;;;;;;;4.80;2.78;;;14.70;99.90;;;;;;4908242;28;86818;-70
2022/09/16 05:11:25;;;;;;;5.75;2.80;;;14.70;99.90;;;;;;4911204;28;87023;-71
2022/09/16 05:13:51;;;;;;;4.90;2.63;;;14.60;99.90;;;;;;4906082;28;86795;-72
2022/09/16 05:16:19;;;;;;;6.20;3.28;;;14.50;99.90;;;;;;4902880;28;88410;-71
2022/09/16 05:18:47;;;;;;;7.28;3.40;;;14.50;99.90;;;;;;4906261;28;87260;-70
2022/09/16 05:21:15;;;;;;;7.05;2.70;;;14.60;99.90;;;;;;4911016;28;86940;-71
2022/09/16 05:23:41;;;;;;;8.35;3.20;;;14.70;99.90;;;;;;4913959;28;86488;-70
2022/09/16 05:26:11;;;;;;;7.47;2.90;;;14.70;99.90;;;;;;4916078;28;86312;-69
2022/09/16 05:28:37;;;;;;;5.65;3.00;;;14.70;99.90;;;;;;4915006;28;88202;-70
2022/09/16 05:31:11;;;;;;;5.25;2.53;;;14.70;99.90;;;;;;4914429;28;87872;-70
2022/09/16 05:33:37;;;;;;;4.80;2.90;;;14.70;99.90;;;;;;4915239;28;87454;-71
2022/09/16 05:36:05;;;;;;;5.03;2.88;;;14.70;99.90;;;;;;4913571;28;86747;-70
2022/09/16 05:38:31;;;;;;;6.75;2.67;;;14.80;99.90;;;;;;4911074;28;87326;-71
2022/09/16 05:41:00;;;;;;;7.82;3.10;;;14.80;99.90;;;;;;4913633;28;86986;-71
2022/09/16 05:43:26;;;;;;;5.90;2.03;;;14.80;99.90;;;;;;4913977;28;86700;-69
2022/09/16 05:45:53;;;;;;;6.68;2.30;;;14.80;99.90;;;;;;4912264;28;86578;-70
2022/09/16 05:48:19;;;;;;;9.30;2.45;;;14.70;99.90;;;;;;4900793;28;86559;-70
2022/09/16 05:51:13;;;;;;;7.65;2.60;;;14.70;99.90;;;;;;4896088;28;86286;-73
2022/09/16 05:53:38;;;;;;;5.03;2.78;;;14.70;99.90;;;;;;4908138;28;87254;-70
2022/09/16 05:56:11;;;;;;;5.40;2.28;;;14.70;99.90;;;;;;4912599;28;86306;-71
2022/09/16 05:58:38;;;;;;;4.18;2.42;;;14.70;99.90;;;;;;4899738;28;86660;-70
2022/09/16 06:01:08;;;;;;;6.82;2.60;;;14.70;99.90;;;;;;4904366;28;86802;-71
2022/09/16 06:03:35;;;;;;;3.45;1.90;;;14.70;99.90;;;;;;4908285;28;87343;-69
2022/09/16 06:06:02;;;;;;;6.68;2.17;;;14.80;99.90;;;;;;4912187;28;86922;-70
2022/09/16 06:08:30;;;;;;;3.35;1.77;;;14.90;99.90;;;;;;4883459;28;87325;-71
2022/09/16 06:10:56;;;;;;;7.22;1.88;;;15.00;99.90;;;;;;4888952;28;89813;-71
2022/09/16 06:13:21;;;;;;;3.33;1.92;;;15.30;99.90;;;;;;4918050;28;86932;-70
2022/09/16 06:15:53;;;;;;;4.13;1.60;;;15.60;99.90;;;;;;4894648;28;86299;-70
2022/09/16 06:18:20;;;;;;;4.07;2.00;;;16.00;99.90;;;;;;4883252;28;87702;-69
2022/09/16 06:20:46;;;;;;;2.75;1.50;;;16.60;99.90;;;;;;4896753;28;87935;-70
2022/09/16 06:23:12;;;;;;;4.18;1.60;;;17.40;99.90;;;;;;4911318;28;86921;-70
2022/09/16 06:25:38;;;;;;;4.32;1.90;;;17.90;99.90;;;;;;4910876;28;86558;-70
2022/09/16 06:28:04;;;;;;;4.82;1.90;;;18.30;99.90;;;;;;4916434;28;87217;-70
2022/09/16 06:30:30;;;;;;;4.50;1.60;;;18.80;99.90;;;;;;4914300;28;87210;-71
2022/09/16 06:32:56;;;;;;;2.80;1.50;;;20.70;96.80;;;;;;4908673;28;86261;-69
2022/09/16 06:35:22;;;;;;;3.42;1.70;;;22.40;92.60;;;;;;4910004;28;85980;-69
2022/09/16 06:37:48;;;;;;;5.10;1.75;;;23.60;88.40;;;;;;4896883;28;87108;-73
2022/09/16 06:40:14;;;;;;;3.50;1.80;;;24.10;79.90;;;;;;4913149;28;87016;-71
2022/09/16 06:42:39;;;;;;;6.78;2.60;;;23.60;76.40;;;;;;4904442;28;87718;-71
2022/09/16 06:45:05;;;;;;;6.43;3.40;;;24.20;74.00;;;;;;4913240;28;86945;-71
2022/09/16 06:47:34;;;;;;;5.80;2.28;;;22.70;76.60;;;;;;4920297;28;87290;-69
2022/09/16 06:50:00;;;;;;;4.05;2.78;;;22.10;79.20;;;;;;4927896;28;86992;-71
2022/09/16 06:52:27;;;;;;;3.38;1.80;;;20.80;81.20;;;;;;4923794;28;86608;-72
2022/09/16 06:54:53;;;;;;;4.80;1.80;;;20.90;87.80;;;;;;4926563;28;86818;-71
2022/09/16 06:57:21;;;;;;;4.88;2.58;;;22.70;79.20;;;;;;4932291;28;87293;-71
2022/09/16 06:59:51;;;;;;;5.00;2.20;;;24.40;73.10;;;;;;4931005;28;86165;-67
2022/09/16 07:02:18;;;;;;;6.82;2.35;;;26.20;73.60;;;;;;4918721;28;86679;-70
2022/09/16 07:04:44;;;;;;;3.60;2.10;;;28.90;66.60;;;;;;4910354;28;87117;-69
2022/09/16 07:07:11;;;;;;;6.72;2.83;;;30.80;60.70;;;;;;4919726;28;87710;-71
2022/09/16 07:09:37;;;;;;;3.97;2.03;;;32.20;49.30;;;;;;4905088;28;88876;-70
2022/09/16 07:12:03;;;;;;;3.42;2.38;;;29.40;58.00;;;;;;4922996;28;86814;-70
2022/09/16 07:14:31;;;;;;;3.85;2.40;;;28.80;59.20;;;;;;4920194;28;86207;-71
2022/09/16 07:16:57;;;;;;;10.65;2.70;;;28.80;57.30;;;;;;4901995;28;87549;-70
2022/09/16 07:19:24;;;;;;;5.50;2.70;;;26.50;59.60;;;;;;4907266;28;87093;-69
2022/09/16 07:21:50;;;;;;;5.70;2.67;;;26.20;61.50;;;;;;4920161;28;86264;-69
2022/09/16 07:24:16;;;;;;;2.88;1.90;;;27.80;58.70;;;;;;4924790;28;86312;-70
2022/09/16 07:26:42;;;;;;;3.53;1.77;;;29.40;59.00;;;;;;4917604;28;87148;-71
2022/09/16 07:29:14;;;;;;;2.70;1.50;;;31.50;53.10;;;;;;4903116;28;87420;-69
2022/09/16 07:31:40;;;;;;;2.88;1.75;;;32.00;51.20;;;;;;4901140;28;87428;-69
2022/09/16 07:34:08;;;;;;;3.90;2.20;;;33.50;48.40;;;;;;4923376;28;87007;-69
2022/09/16 07:36:42;;;;;;;4.57;2.40;;;34.80;47.60;;;;;;4912736;28;86529;-68
2022/09/16 07:39:10;;;;;;;3.88;2.33;;;36.60;45.60;;;;;;4914629;28;86284;-68
2022/09/16 07:41:38;;;;;;;2.83;1.70;;;35.60;42.20;;;;;;4901749;28;86537;-68
2022/09/16 07:44:06;;;;;;;3.20;2.75;;;33.30;47.40;;;;;;4905724;28;86544;-70
2022/09/16 07:46:33;;;;;;;2.47;1.90;;;31.10;50.60;;;;;;4909020;28;86748;-73
2022/09/16 07:49:01;;;;;;;2.75;1.83;;;29.90;51.40;;;;;;4918572;28;86902;-69
2022/09/16 07:51:28;;;;;;;3.97;1.77;;;28.60;53.20;;;;;;4918661;28;87069;-70
2022/09/16 07:53:59;;;;;;;2.92;1.95;;;27.40;57.80;;;;;;4918956;28;86739;-70
2022/09/16 07:56:27;;;;;;;4.25;1.35;;;26.90;57.50;;;;;;4917023;28;88370;-71
2022/09/16 07:58:55;;;;;;;3.90;1.65;;;26.70;58.10;;;;;;4907155;28;86706;-72
2022/09/16 08:01:21;;;;;;;3.13;1.88;;;26.60;59.00;;;;;;4909936;28;87042;-69
2022/09/16 08:03:47;;;;;;;2.55;1.90;;;26.40;58.50;;;;;;4911486;28;86221;-69
2022/09/16 08:06:16;;;;;;;3.05;1.88;;;25.90;61.00;;;;;;4903907;28;87727;-70
2022/09/16 08:08:43;;;;;;;6.50;2.53;;;25.40;60.90;;;;;;4917530;28;86393;-71
2022/09/16 08:11:11;;;;;;;5.28;2.45;;;25.10;61.70;;;;;;4917900;28;86830;-69
2022/09/16 08:13:37;;;;;;;4.18;2.63;;;24.60;63.60;;;;;;4918431;28;86317;-71
2022/09/16 08:16:06;;;;;;;5.82;3.42;;;24.00;64.40;;;;;;4918178;28;86853;-69
2022/09/16 08:18:32;;;;;;;6.05;2.95;;;23.60;66.60;;;;;;4910671;28;86712;-70
2022/09/16 08:21:00;;;;;;;3.13;1.60;;;23.60;66.50;;;;;;4913164;28;87786;-70
2022/09/16 08:23:26;;;;;;;3.30;2.20;;;23.60;67.10;;;;;;4910010;28;87127;-69
2022/09/16 08:25:57;;;;;;;4.10;2.20;;;23.80;68.30;;;;;;4916042;28;87198;-70
2022/09/16 08:28:23;;;;;;;3.88;2.40;;;24.00;66.60;;;;;;4918753;28;86237;-70
2022/09/16 08:30:49;;;;;;;3.50;1.75;;;24.50;65.00;;;;;;4917541;28;86312;-69
2022/09/16 08:33:19;;;;;;;4.43;2.00;;;24.80;62.90;;;;;;4916567;28;86939;-69
2022/09/16 08:36:07;;;;;;;2.65;1.48;;;24.70;62.20;;;;;;4913197;28;87743;-70
2022/09/16 08:38:33;;;;;;;4.63;2.33;;;24.20;64.90;;;;;;4914113;28;86269;-70
2022/09/16 08:41:22;;;;;;;7.43;2.33;;;23.90;67.40;;;;;;4914450;28;86992;-70
2022/09/16 08:43:53;;;;;;;3.72;2.03;;;23.70;66.30;;;;;;4916048;28;86872;-71
2022/09/16 08:46:46;;;;;;;5.80;1.98;;;23.30;67.20;;;;;;4919771;28;87858;-70
2022/09/16 08:49:18;;;;;;;3.28;1.90;;;23.80;68.20;;;;;;4903202;28;87218;-70
2022/09/16 08:51:45;;;;;;;3.92;2.00;;;24.50;65.00;;;;;;4904816;28;86936;-69
2022/09/16 08:54:23;;;;;;;2.95;1.52;;;24.90;64.10;;;;;;4921154;28;87172;-73
2022/09/16 08:56:49;;;;;;;3.53;1.50;;;25.10;64.70;;;;;;4917497;28;87208;-69
2022/09/16 08:59:23;;;;;;;2.75;1.73;;;25.70;61.00;;;;;;4915470;28;86578;-69
2022/09/16 09:02:46;;;;;;;2.60;1.23;;;26.10;61.20;;;;;;4905895;28;86260;-71
2022/09/16 09:05:28;;;;;;;3.78;1.27;;;26.50;58.10;;;;;;4836367;29;85888;-70
2022/09/16 09:08:20;;;;;;;3.20;1.27;;;26.10;57.20;;;;;;4838121;29;87294;-69
2022/09/16 09:10:52;;;;;;;2.10;1.33;;;25.60;56.30;;;;;;4884841;28;87032;-70
2022/09/16 09:13:31;;;;;;;4.80;1.25;;;25.90;58.60;;;;;;4901365;28;87364;-72
2022/09/16 09:16:09;;;;;;;2.90;1.38;;;26.30;55.60;;;;;;4902887;28;86866;-69
2022/09/16 09:19:01;;;;;;;2.88;1.30;;;26.40;56.70;;;;;;4908404;28;87284;-69
2022/09/16 09:21:42;;;;;;;3.45;1.52;;;26.80;56.40;;;;;;4910237;28;87181;-70
2022/09/16 09:24:24;;;;;;;3.00;1.50;;;27.20;52.70;;;;;;4902057;28;86963;-69
2022/09/16 09:27:13;;;;;;;3.25;0.93;;;27.20;51.80;;;;;;4898491;28;86611;-70
2022/09/16 09:29:38;;;;;;;;;;;25.80;54.10;;;;;;4907330;28;87396;-70
2022/09/16 09:32:10;;;;;;;3.88;1.60;;;25.50;55.60;;;;;;4918494;28;85819;-69
2022/09/16 09:34:55;;;;;;;2.42;1.30;;;25.30;56.40;;;;;;4905019;28;86462;-71
2022/09/16 09:37:38;;;;;;;2.72;1.27;;;25.40;57.90;;;;;;4910841;28;87386;-70
2022/09/16 09:40:17;;;;;;;4.25;1.52;;;25.30;57.00;;;;;;4912191;28;88120;-72
2022/09/16 09:42:55;;;;;;;1.90;0.80;;;24.80;57.40;;;;;;4904864;28;87956;-72
2022/09/16 09:45:40;;;;;;;2.20;1.05;;;24.30;58.20;;;;;;4907551;28;87109;-69
2022/09/16 09:48:20;;;;;;;2.25;1.27;;;24.20;59.30;;;;;;4909728;28;87058;-72
2022/09/16 09:50:51;;;;;;;3.13;1.73;;;24.10;59.20;;;;;;4905088;28;87293;-69
2022/09/16 09:53:27;;;;;;;2.57;1.23;;;24.10;60.10;;;;;;4914652;28;87814;-71
2022/09/16 09:56:11;;;;;;;2.38;1.20;;;24.00;60.60;;;;;;4914916;28;86719;-70
2022/09/16 09:59:03;;;;;;;2.10;1.15;;;23.90;61.20;;;;;;4913877;28;86216;-69
2022/09/16 10:01:29;;;;;;;3.28;1.40;;;23.80;58.50;;;;;;4867837;28;86858;-69
2022/09/16 10:03:56;;;;;;;3.13;1.30;;;23.40;60.90;;;;;;4915155;28;87440;-70
2022/09/16 10:06:28;;;;;;;3.78;1.35;;;23.20;60.60;;;;;;4913547;28;87497;-69
2022/09/16 10:08:56;;;;;;;2.90;1.52;;;23.30;60.50;;;;;;4915172;28;86174;-69
2022/09/16 10:11:31;;;;;;;2.40;1.50;;;23.50;60.70;;;;;;4905806;28;88348;-70
2022/09/16 10:13:59;;;;;;;5.50;1.45;;;23.80;60.60;;;;;;4909737;28;87529;-70
2022/09/16 10:16:35;;;;;;;3.03;1.55;;;23.90;60.50;;;;;;4912086;28;86545;-70
2022/09/16 10:19:07;;;;;;;3.88;1.77;;;24.10;59.70;;;;;;4913654;28;86765;-69
2022/09/16 10:22:10;;;;;;;2.67;1.40;;;24.40;60.10;;;;;;4906156;28;87014;-70
2022/09/16 10:24:38;;;;;;;3.28;1.83;;;24.90;58.80;;;;;;4911219;28;86246;-69
2022/09/16 10:27:28;;;;;;;3.33;1.50;;;25.10;58.80;;;;;;4910571;28;86649;-70
2022/09/16 10:30:15;;;;;;;2.67;0.80;;;25.00;57.60;;;;;;4912484;28;86398;-70
2022/09/16 10:32:51;;;;;;;3.33;1.42;;;25.00;57.60;;;;;;4914878;28;88049;-69
2022/09/16 10:35:26;;;;;;;4.35;2.45;;;24.70;57.30;;;;;;4915127;28;87901;-70
2022/09/16 10:38:02;;;;;;;4.15;1.50;;;24.40;57.30;;;;;;4907148;28;87163;-71
2022/09/16 10:40:28;;;;;;;6.45;1.75;;;24.60;58.00;;;;;;4910132;28;87017;-70
2022/09/16 10:43:03;;;;;;;3.00;0.82;;;24.50;58.10;;;;;;4909711;28;87292;-69
2022/09/16 10:45:34;;;;;;;3.03;1.23;;;24.60;59.00;;;;;;4913155;28;86923;-71
2022/09/16 10:48:05;;;;;;;3.45;1.67;;;24.70;59.10;;;;;;4898035;28;86466;-71
2022/09/16 10:50:31;;;;;;;3.85;1.55;;;24.70;59.30;;;;;;4900465;28;85806;-70
2022/09/16 10:52:57;;;;;;;2.47;1.40;;;24.70;58.50;;;;;;4894465;28;87850;-70
2022/09/16 10:55:24;;;;;;;5.05;1.40;;;24.70;59.60;;;;;;4902808;28;87538;-70
2022/09/16 10:57:51;;;;;;;4.32;1.42;;;24.90;58.00;;;;;;4907967;28;87300;-73
2022/09/16 11:00:18;;;;;;;2.22;1.23;;;25.30;58.80;;;;;;4906039;28;86345;-70
2022/09/16 11:03:13;;;;;;;2.78;1.50;;;25.70;57.80;;;;;;4895173;28;86886;-71
2022/09/16 11:06:09;;;;;;;2.85;1.35;;;26.10;58.70;;;;;;4823895;28;87584;-69
2022/09/16 11:08:57;;;;;;;2.47;1.33;;;26.00;57.80;;;;;;4906169;28;86697;-70
2022/09/16 11:11:36;;;;;;;;;;;25.90;55.80;;;;;;4888989;28;86816;-71
2022/09/16 11:14:24;;;;;;;3.20;1.42;;;24.80;55.80;;;;;;4900815;28;87737;-70
2022/09/16 11:17:02;;;;;;;3.15;1.40;;;24.60;56.00;;;;;;4882228;28;86602;-69
2022/09/16 11:19:35;;;;;;;2.17;1.25;;;24.90;57.80;;;;;;4898089;28;87006;-70
2022/09/16 11:22:01;;;;;;;5.68;1.38;;;24.90;56.10;;;;;;4895366;28;86862;-70
2022/09/16 11:24:45;;;;;;;3.88;1.40;;;24.80;58.50;;;;;;4887494;28;87572;-70
2022/09/16 11:27:52;;;;;;;4.03;1.88;;;24.50;58.00;;;;;;4889454;28;88090;-70
2022/09/16 11:30:23;;;;;;;4.55;1.80;;;23.20;60.90;;;;;;4810340;29;86262;-70
2022/09/16 11:33:09;;;;;;;4.03;1.20;;;21.60;65.70;;;;;;4873276;28;88225;-69
2022/09/16 11:35:38;;;;;;;3.75;1.83;;;20.90;69.50;;;;;;4889762;28;86991;-69
2022/09/16 11:38:43;;;;;;;6.20;1.80;;;20.30;72.50;;;;;;4884683;28;86975;-70
2022/09/16 11:41:29;;;;;;;4.45;2.20;;;19.60;74.90;;;;;;4848967;28;86772;-69
2022/09/16 11:44:19;;;;;;;5.78;2.58;;;19.50;75.90;;;;;;4883781;28;86214;-72
2022/09/16 11:46:45;;;;;;;4.05;1.20;;;19.20;78.90;;;;;;4845100;28;1249729;-69
2022/09/16 11:49:38;;;;;;;3.33;1.58;;;18.80;79.40;;;;;;4901505;28;86928;-69
2022/09/16 11:52:19;;;;;;;2.22;1.05;;;18.80;81.90;;;;;;4907985;28;87671;-71
2022/09/16 11:55:31;;;;;;;2.42;1.05;;;19.00;81.80;;;;;;4910029;28;86269;-72
2022/09/16 11:58:19;;;;;;;2.35;0.77;;;18.80;82.30;;;;;;4923561;28;86942;-69
2022/09/16 12:00:48;;;;;;;2.05;0.98;;;18.80;84.20;;;;;;4911896;28;87384;-70
2022/09/16 12:03:46;;;;;;;3.03;0.90;;;19.00;84.40;;;;;;4915743;28;88532;-69
2022/09/16 12:06:20;;;;;;;2.38;0.65;;;19.30;83.00;;;;;;4915704;28;86936;-70
2022/09/16 12:08:54;;;;;;;1.77;0.60;;;19.10;83.50;;;;;;4918066;28;87232;-71
2022/09/16 12:11:31;;;;;;;2.33;0.70;;;19.10;84.10;;;;;;4907909;28;87004;-68
2022/09/16 12:14:22;;;;;;;2.53;0.70;;;19.00;84.10;;;;;;4910013;28;86880;-69
2022/09/16 12:17:00;;;;;;;1.80;0.70;;;18.90;84.20;;;;;;4908288;28;86331;-68
2022/09/16 12:19:28;;;;;;;2.28;0.77;;;19.00;85.30;;;;;;4916975;28;87488;-69
2022/09/16 12:22:09;;;;;;;1.98;1.10;;;19.00;84.10;;;;;;4916311;28;87996;-69
2022/09/16 12:25:02;;;;;;;1.27;0.55;;;18.90;85.10;;;;;;4915359;28;86378;-70
2022/09/16 12:27:40;;;;;;;1.75;0.50;;;18.80;83.10;;;;;;4911830;28;86861;-69
2022/09/16 12:30:17;;;;;;;2.38;0.50;;;18.40;84.40;;;;;;4915243;28;88023;-70
2022/09/16 12:33:07;;;;;;;1.33;0.50;;;18.00;84.80;;;;;;4908733;28;86570;-70
2022/09/16 12:35:45;;;;;;;2.20;0.40;;;18.10;86.80;;;;;;4910051;28;87477;-68
2022/09/16 12:38:21;;;;;;;1.25;0.60;;;18.20;86.10;;;;;;4912813;28;86028;-69
2022/09/16 12:41:05;;;;;;;2.35;0.68;;;18.40;85.20;;;;;;4907794;28;87166;-69
2022/09/16 12:43:49;;;;;;;1.30;0.63;;;18.50;85.10;;;;;;4914251;28;89965;-70
2022/09/16 12:46:27;;;;;;;1.55;0.52;;;18.60;83.70;;;;;;4911855;28;87705;-70
2022/09/16 12:49:01;;;;;;;2.15;1.10;;;18.40;84.20;;;;;;4916986;28;86610;-69
2022/09/16 12:52:02;;;;;;;1.77;0.40;;;18.40;84.70;;;;;;4909948;28;87260;-70
2022/09/16 12:55:05;;;;;;;1.23;0.22;;;18.30;85.20;;;;;;4910748;28;86633;-69
2022/09/16 12:57:33;;;;;;;2.20;0.55;;;18.30;85.60;;;;;;4917178;28;87060;-69
2022/09/16 13:00:22;;;;;;;2.17;0.70;;;18.20;85.30;;;;;;4918278;28;86773;-69
2022/09/16 13:02:55;;;;;;;2.17;0.55;;;18.00;86.40;;;;;;4920374;28;87445;-69
2022/09/16 13:05:24;;;;;;;1.73;0.57;;;17.90;88.70;;;;;;4916628;28;86842;-70
2022/09/16 13:07:57;;;;;;;1.92;0.40;;;17.30;88.90;;;;;;4917307;28;86858;-68
2022/09/16 13:10:38;;;;;;;1.58;0.50;;;17.50;85.60;;;;;;4917796;28;86658;-69
2022/09/16 13:13:06;;;;;;;1.20;0.38;;;17.40;86.60;;;;;;4914676;28;88164;-68
2022/09/16 13:15:37;;;;;;;0.80;0.40;;;17.20;87.90;;;;;;4917371;28;87893;-70
2022/09/16 13:18:18;;;;;;;2.55;0.80;;;17.10;89.10;;;;;;4918290;28;86248;-69
2022/09/16 13:21:12;;;;;;;2.83;1.23;;;17.20;90.00;;;;;;4920268;28;86799;-70
2022/09/16 13:23:44;;;;;;;2.13;0.68;;;17.10;90.50;;;;;;4924296;28;87228;-68
2022/09/16 13:26:10;;;;;;;1.13;0.40;;;16.90;91.00;;;;;;4922751;28;86287;-70
2022/09/16 13:28:37;;;;;;;1.02;0.30;;;16.80;91.40;;;;;;4905153;28;86941;-71
2022/09/16 13:31:12;;;;;;;1.08;0.40;;;16.80;90.70;;;;;;4918268;28;85880;-69
2022/09/16 13:34:00;;;;;;;2.40;0.50;;;16.60;91.70;;;;;;4915652;28;87283;-71
2022/09/16 13:36:26;;;;;;;1.40;0.40;;;16.50;91.90;;;;;;4916487;28;87057;-69
2022/09/16 13:38:52;;;;;;;1.70;0.40;;;16.70;91.00;;;;;;4917255;28;87463;-70
2022/09/16 13:41:33;;;;;;;3.10;0.40;;;16.60;91.70;;;;;;4911695;28;87043;-71
2022/09/16 13:44:00;;;;;;;1.83;0.40;;;16.40;92.00;;;;;;4919288;28;87475;-69
2022/09/16 13:46:30;;;;;;;2.38;0.43;;;16.20;94.00;;;;;;4915316;28;87047;-71
2022/09/16 13:49:03;;;;;;;0.93;0.32;;;16.20;92.20;;;;;;4922729;28;86625;-69
2022/09/16 13:51:32;;;;;;;1.88;0.40;;;16.30;92.30;;;;;;4916950;28;86995;-70
2022/09/16 13:54:03;;;;;;;1.13;0.32;;;16.20;93.20;;;;;;4909316;28;86572;-69
2022/09/16 13:56:41;;;;;;;1.13;0.50;;;16.10;93.10;;;;;;4912890;28;86982;-71
2022/09/16 13:59:19;;;;;;;1.27;0.47;;;16.10;92.90;;;;;;4912832;28;86815;-69
2022/09/16 14:02:12;;;;;;;1.08;0.47;;;16.10;93.50;;;;;;4910365;28;86339;-70
2022/09/16 14:04:58;;;;;;;1.85;0.60;;;16.00;93.90;;;;;;4915975;28;87561;-68
2022/09/16 14:07:33;;;;;;;2.78;0.50;;;16.00;94.10;;;;;;4916066;28;86997;-69
2022/09/16 14:10:07;;;;;;;1.77;0.60;;;16.00;93.80;;;;;;4911154;28;87848;-70
2022/09/16 14:13:01;;;;;;;2.35;0.50;;;16.00;94.60;;;;;;4907017;28;87474;-70
2022/09/16 14:15:33;;;;;;;2.80;0.50;;;15.80;96.10;;;;;;4910014;28;87130;-69
2022/09/16 14:18:01;;;;;;;1.35;0.50;;;15.60;96.60;;;;;;4911584;28;86751;-68
2022/09/16 14:20:28;;;;;;;1.90;0.47;;;15.40;97.60;;;;;;4909405;28;86401;-73
2022/09/16 14:23:02;;;;;;;3.90;0.73;;;15.40;98.00;;;;;;4911078;28;86014;-70
2022/09/16 14:25:35;;;;;;;2.97;0.90;;;15.50;97.90;;;;;;4910477;28;87605;-71
2022/09/16 14:28:24;;;;;;;2.35;0.45;;;15.60;98.90;;;;;;4908681;28;86999;-69
2022/09/16 14:30:56;;;;;;;1.63;0.50;;;15.30;99.90;;;;;;4906739;28;87201;-69
2022/09/16 14:33:27;;;;;;;0.75;0.20;;;15.40;99.90;;;;;;4913466;28;86717;-70
2022/09/16 14:35:55;;;;;;;1.83;0.70;;;15.50;99.90;;;;;;4911072;28;87804;-70
2022/09/16 14:38:29;;;;;;;1.60;0.50;;;15.70;99.90;;;;;;4908520;28;86297;-69
2022/09/16 14:40:55;;;;;;;1.48;0.57;;;15.70;99.90;;;;;;4907446;28;86722;-71
2022/09/16 14:43:21;;;;;;;1.25;0.50;;;15.90;99.90;;;;;;4908128;28;88616;-70
2022/09/16 14:45:52;;;;;;;1.10;0.60;;;15.90;99.90;;;;;;4918878;28;87322;-72
2022/09/16 14:48:21;;;;;;;2.50;0.63;;;16.10;99.90;;;;;;4914204;28;87494;-69
2022/09/16 14:50:49;;;;;;;2.40;0.50;;;16.20;99.90;;;;;;4921291;28;87314;-70
2022/09/16 14:53:27;;;;;;;1.05;0.63;;;16.30;99.90;;;;;;4920009;28;87374;-73
2022/09/16 14:55:53;;;;;;;2.33;0.60;;;16.20;99.90;;;;;;4914378;28;88245;-70
2022/09/16 14:58:20;;;;;;;2.85;0.63;;;16.20;99.50;;;;;;4907651;28;87929;-71
2022/09/16 15:01:17;;;;;;;2.13;0.38;;;16.20;99.50;;;;;;4909043;28;87221;-71
2022/09/16 15:03:56;;;;;;;2.13;0.50;;;16.00;98.90;;;;;;4911429;28;88785;-70
2022/09/16 15:06:26;;;;;;;1.65;0.70;;;15.50;99.90;;;;;;4910195;28;87256;-72
2022/09/16 15:09:16;;;;;;;2.15;1.23;;;15.50;99.90;;;;;;4909745;28;87990;-70
2022/09/16 15:11:57;;;;;;;1.40;0.60;;;15.10;99.90;;;;;;4908210;28;87003;-71
2022/09/16 15:14:24;;;;;;;1.80;0.30;;;14.70;99.90;;;;;;4908698;28;86110;-72
2022/09/16 15:16:54;;;;;;;1.58;0.60;;;14.70;99.90;;;;;;4916104;28;87628;-74
2022/09/16 15:19:24;;;;;;;2.42;0.60;;;15.00;99.90;;;;;;4911558;28;86745;-69
2022/09/16 15:21:50;;;;;;;1.77;0.85;;;15.00;99.90;;;;;;4912654;28;88065;-70
2022/09/16 15:24:30;;;;;;;2.33;1.00;;;14.70;99.90;;;;;;4909499;28;87162;-69
2022/09/16 15:26:57;;;;;;;1.67;0.70;;;14.60;99.90;;;;;;4908004;28;87260;-70
2022/09/16 15:29:22;;;;;;;2.25;1.00;;;14.60;99.90;;;;;;4914301;28;86729;-70
2022/09/16 15:31:49;;;;;;;3.85;1.20;;;14.60;99.90;;;;;;4910396;28;87751;-73
2022/09/16 15:34:18;;;;;;;1.65;0.77;;;14.70;99.90;;;;;;4913494;28;86344;-69
2022/09/16 15:36:58;;;;;;;2.85;1.00;;;14.70;99.90;;;;;;4916110;28;86853;-71
2022/09/16 15:39:25;;;;;;;3.00;0.90;;;14.70;99.90;;;;;;4917438;28;86391;-71
2022/09/16 15:42:13;;;;;;;1.60;0.82;;;14.70;99.90;;;;;;4913859;28;86292;-73
2022/09/16 15:44:57;;;;;;;3.00;0.98;;;14.40;99.90;;;;;;4913144;28;88154;-68
2022/09/16 15:47:54;;;;;;;2.42;1.00;;;14.80;99.90;;;;;;4915098;28;87583;-69
2022/09/16 15:50:22;;;;;;;2.30;0.63;;;14.80;99.90;;;;;;4917602;28;88976;-69
2022/09/16 15:52:57;;;;;;;3.97;0.82;;;14.90;99.90;;;;;;4916523;28;86880;-70
2022/09/16 15:55:52;;;;;;;3.67;1.10;;;15.10;99.90;;;;;;4905121;28;86737;-68
2022/09/16 15:58:39;;;;;;;2.85;0.68;;;15.10;99.90;;;;;;4905995;28;87395;-71
2022/09/16 16:01:17;;;;;;;2.10;0.80;;;15.10;99.90;;;;;;4912612;28;86769;-72
2022/09/16 16:04:03;;;;;;;3.45;0.77;;;14.90;99.90;;;;;;4908720;28;86990;-74
2022/09/16 16:06:57;;;;;;;2.78;1.25;;;14.90;99.90;;;;;;4914044;28;86059;-73
2022/09/16 16:09:26;;;;;;;5.07;1.00;;;14.80;99.90;;;;;;4905853;28;87242;-72